sensor_id;sensor_type;location;lat;lon;timestamp;pressure;altitude;pressure_sealevel;temperature;humidity
76590;BME280;65471;55.908;37.880;2023-10-13T00:00:30;98326.28;;;7.84;91.88
76590;BME280;65471;55.908;37.880;2023-10-13T00:03:04;98317.88;;;7.81;92.32
76590;BME280;65471;55.908;37.880;2023-10-13T00:05:33;98323.22;;;7.75;92.22
76590;BME280;65471;55.908;37.880;2023-10-13T00:08:01;98328.25;;;7.72;92.36
76590;BME280;65471;55.908;37.880;2023-10-13T00:10:32;98330.66;;;7.68;92.50
76590;BME280;65471;55.908;37.880;2023-10-13T00:13:03;98329.28;;;7.66;92.51
76590;BME280;65471;55.908;37.880;2023-10-13T00:15:40;98335.44;;;7.66;92.29
76590;BME280;65471;55.908;37.880;2023-10-13T00:18:12;98344.34;;;7.67;92.35
76590;BME280;65471;55.908;37.880;2023-10-13T00:20:42;98345.97;;;7.68;92.34
76590;BME280;65471;55.908;37.880;2023-10-13T00:23:17;98347.59;;;7.69;92.91
76590;BME280;65471;55.908;37.880;2023-10-13T00:25:49;98344.41;;;7.72;92.47
76590;BME280;65471;55.908;37.880;2023-10-13T00:28:27;98343.91;;;7.75;92.66
76590;BME280;65471;55.908;37.880;2023-10-13T00:31:02;98357.69;;;7.78;92.88
76590;BME280;65471;55.908;37.880;2023-10-13T00:33:38;98344.28;;;7.84;92.88
76590;BME280;65471;55.908;37.880;2023-10-13T00:36:08;98344.06;;;7.85;92.70
76590;BME280;65471;55.908;37.880;2023-10-13T00:38:37;98338.97;;;7.89;93.09
76590;BME280;65471;55.908;37.880;2023-10-13T00:41:04;98349.50;;;7.90;93.13
76590;BME280;65471;55.908;37.880;2023-10-13T00:43:53;98348.19;;;7.93;93.31
76590;BME280;65471;55.908;37.880;2023-10-13T00:46:37;98346.03;;;7.95;93.14
76590;BME280;65471;55.908;37.880;2023-10-13T00:49:06;98348.81;;;8.00;93.47
76590;BME280;65471;55.908;37.880;2023-10-13T00:51:36;98356.72;;;8.07;93.17
76590;BME280;65471;55.908;37.880;2023-10-13T00:54:07;98358.41;;;8.13;93.30
76590;BME280;65471;55.908;37.880;2023-10-13T00:56:40;98358.47;;;8.18;93.18
76590;BME280;65471;55.908;37.880;2023-10-13T00:59:16;98359.81;;;8.21;92.85
76590;BME280;65471;55.908;37.880;2023-10-13T01:01:43;98356.16;;;8.27;92.69
76590;BME280;65471;55.908;37.880;2023-10-13T01:04:11;98360.47;;;8.28;92.39
76590;BME280;65471;55.908;37.880;2023-10-13T01:06:39;98367.97;;;8.26;92.19
76590;BME280;65471;55.908;37.880;2023-10-13T01:09:10;98358.00;;;8.26;92.04
76590;BME280;65471;55.908;37.880;2023-10-13T01:14:11;98368.84;;;8.32;92.03
76590;BME280;65471;55.908;37.880;2023-10-13T01:16:38;98356.19;;;8.32;91.82
76590;BME280;65471;55.908;37.880;2023-10-13T01:19:15;98373.72;;;8.35;91.10
76590;BME280;65471;55.908;37.880;2023-10-13T01:21:49;98377.00;;;8.37;91.03
76590;BME280;65471;55.908;37.880;2023-10-13T01:24:16;98381.81;;;8.35;91.12
76590;BME280;65471;55.908;37.880;2023-10-13T01:26:45;98391.50;;;8.36;90.61
76590;BME280;65471;55.908;37.880;2023-10-13T01:29:18;98386.94;;;8.36;90.13
76590;BME280;65471;55.908;37.880;2023-10-13T01:31:46;98398.03;;;8.40;89.26
76590;BME280;65471;55.908;37.880;2023-10-13T01:34:18;98389.13;;;8.39;88.46
76590;BME280;65471;55.908;37.880;2023-10-13T01:36:52;98391.00;;;8.39;88.25
76590;BME280;65471;55.908;37.880;2023-10-13T01:39:21;98388.03;;;8.35;87.32
76590;BME280;65471;55.908;37.880;2023-10-13T01:41:48;98398.22;;;8.33;86.89
76590;BME280;65471;55.908;37.880;2023-10-13T01:44:26;98393.34;;;8.30;86.27
76590;BME280;65471;55.908;37.880;2023-10-13T01:47:00;98392.47;;;8.24;85.93
76590;BME280;65471;55.908;37.880;2023-10-13T01:49:33;98388.63;;;8.20;85.36
76590;BME280;65471;55.908;37.880;2023-10-13T01:52:09;98390.44;;;8.15;85.53
76590;BME280;65471;55.908;37.880;2023-10-13T01:54:46;98399.28;;;8.10;85.32
76590;BME280;65471;55.908;37.880;2023-10-13T01:57:16;98393.78;;;8.00;86.08
76590;BME280;65471;55.908;37.880;2023-10-13T01:59:50;98393.94;;;7.93;86.22
76590;BME280;65471;55.908;37.880;2023-10-13T02:02:17;98391.16;;;7.88;86.15
76590;BME280;65471;55.908;37.880;2023-10-13T02:05:05;98410.25;;;7.86;86.18
76590;BME280;65471;55.908;37.880;2023-10-13T02:07:32;98417.78;;;7.84;85.66
76590;BME280;65471;55.908;37.880;2023-10-13T02:10:01;98416.72;;;7.85;85.62
76590;BME280;65471;55.908;37.880;2023-10-13T02:12:32;98415.63;;;7.86;85.37
76590;BME280;65471;55.908;37.880;2023-10-13T02:15:14;98417.28;;;7.87;85.44
76590;BME280;65471;55.908;37.880;2023-10-13T02:17:53;98414.84;;;7.86;86.14
76590;BME280;65471;55.908;37.880;2023-10-13T02:20:22;98421.53;;;7.83;86.19
76590;BME280;65471;55.908;37.880;2023-10-13T02:22:57;98414.75;;;7.81;86.02
76590;BME280;65471;55.908;37.880;2023-10-13T02:25:24;98417.13;;;7.77;86.63
76590;BME280;65471;55.908;37.880;2023-10-13T02:28:09;98428.94;;;7.76;87.03
76590;BME280;65471;55.908;37.880;2023-10-13T02:30:42;98426.81;;;7.78;86.86
76590;BME280;65471;55.908;37.880;2023-10-13T02:33:12;98420.38;;;7.79;87.05
76590;BME280;65471;55.908;37.880;2023-10-13T02:35:40;98430.09;;;7.80;87.50
76590;BME280;65471;55.908;37.880;2023-10-13T02:38:22;98427.91;;;7.77;87.82
76590;BME280;65471;55.908;37.880;2023-10-13T02:40:54;98431.00;;;7.69;88.20
76590;BME280;65471;55.908;37.880;2023-10-13T02:43:23;98427.31;;;7.58;89.44
76590;BME280;65471;55.908;37.880;2023-10-13T02:45:53;98429.13;;;7.52;89.58
76590;BME280;65471;55.908;37.880;2023-10-13T02:48:25;98435.00;;;7.49;89.82
76590;BME280;65471;55.908;37.880;2023-10-13T02:50:58;98435.25;;;7.48;89.94
76590;BME280;65471;55.908;37.880;2023-10-13T02:53:28;98434.69;;;7.46;90.12
76590;BME280;65471;55.908;37.880;2023-10-13T02:55:56;98443.47;;;7.41;90.69
76590;BME280;65471;55.908;37.880;2023-10-13T02:58:33;98434.28;;;7.37;90.92
76590;BME280;65471;55.908;37.880;2023-10-13T03:01:07;98440.38;;;7.32;91.13
76590;BME280;65471;55.908;37.880;2023-10-13T03:03:50;98439.00;;;7.30;91.59
76590;BME280;65471;55.908;37.880;2023-10-13T03:06:22;98436.31;;;7.30;91.53
76590;BME280;65471;55.908;37.880;2023-10-13T03:09:03;98441.09;;;7.28;91.67
76590;BME280;65471;55.908;37.880;2023-10-13T03:11:41;98448.59;;;7.25;92.17
76590;BME280;65471;55.908;37.880;2023-10-13T03:14:22;98451.03;;;7.27;92.40
76590;BME280;65471;55.908;37.880;2023-10-13T03:17:00;98454.78;;;7.26;92.46
76590;BME280;65471;55.908;37.880;2023-10-13T03:19:36;98442.41;;;7.25;92.60
76590;BME280;65471;55.908;37.880;2023-10-13T03:22:08;98459.81;;;7.22;92.29
76590;BME280;65471;55.908;37.880;2023-10-13T03:24:39;98455.53;;;7.21;92.36
76590;BME280;65471;55.908;37.880;2023-10-13T03:27:13;98465.13;;;7.17;92.66
76590;BME280;65471;55.908;37.880;2023-10-13T03:29:45;98467.31;;;7.20;92.55
76590;BME280;65471;55.908;37.880;2023-10-13T03:32:22;98462.50;;;7.22;92.88
76590;BME280;65471;55.908;37.880;2023-10-13T03:34:53;98472.56;;;7.27;92.51
76590;BME280;65471;55.908;37.880;2023-10-13T03:37:29;98469.63;;;7.29;92.61
76590;BME280;65471;55.908;37.880;2023-10-13T03:40:09;98478.25;;;7.31;92.18
76590;BME280;65471;55.908;37.880;2023-10-13T03:43:00;98469.13;;;7.32;92.02
76590;BME280;65471;55.908;37.880;2023-10-13T03:45:36;98476.06;;;7.28;92.01
76590;BME280;65471;55.908;37.880;2023-10-13T03:48:10;98483.81;;;7.24;92.00
76590;BME280;65471;55.908;37.880;2023-10-13T03:50:50;98481.91;;;7.24;92.45
76590;BME280;65471;55.908;37.880;2023-10-13T03:53:31;98496.03;;;7.32;92.30
76590;BME280;65471;55.908;37.880;2023-10-13T03:56:06;98493.66;;;7.35;91.98
76590;BME280;65471;55.908;37.880;2023-10-13T03:58:39;98499.03;;;7.35;91.83
76590;BME280;65471;55.908;37.880;2023-10-13T04:01:09;98506.88;;;7.37;91.72
76590;BME280;65471;55.908;37.880;2023-10-13T04:03:42;98515.50;;;7.39;91.59
76590;BME280;65471;55.908;37.880;2023-10-13T04:06:31;98522.84;;;7.43;91.70
76590;BME280;65471;55.908;37.880;2023-10-13T04:09:17;98538.03;;;7.50;91.96
76590;BME280;65471;55.908;37.880;2023-10-13T04:12:01;98526.28;;;7.56;91.64
76590;BME280;65471;55.908;37.880;2023-10-13T04:14:29;98533.56;;;7.55;91.22
76590;BME280;65471;55.908;37.880;2023-10-13T04:17:15;98557.34;;;7.64;90.93
76590;BME280;65471;55.908;37.880;2023-10-13T04:19:43;98554.19;;;7.67;91.15
76590;BME280;65471;55.908;37.880;2023-10-13T04:22:29;98560.69;;;7.71;91.00
76590;BME280;65471;55.908;37.880;2023-10-13T04:25:18;98552.16;;;7.74;90.05
76590;BME280;65471;55.908;37.880;2023-10-13T04:28:05;98562.44;;;7.77;90.04
76590;BME280;65471;55.908;37.880;2023-10-13T04:30:46;98564.38;;;7.82;89.63
76590;BME280;65471;55.908;37.880;2023-10-13T04:33:30;98568.72;;;7.83;89.60
76590;BME280;65471;55.908;37.880;2023-10-13T04:36:16;98570.56;;;7.82;89.29
76590;BME280;65471;55.908;37.880;2023-10-13T04:38:56;98575.25;;;7.87;89.10
76590;BME280;65471;55.908;37.880;2023-10-13T04:41:27;98575.56;;;7.90;88.85
76590;BME280;65471;55.908;37.880;2023-10-13T04:44:18;98570.75;;;7.92;87.92
76590;BME280;65471;55.908;37.880;2023-10-13T04:47:03;98582.66;;;7.97;87.46
76590;BME280;65471;55.908;37.880;2023-10-13T04:49:32;98590.25;;;8.00;86.85
76590;BME280;65471;55.908;37.880;2023-10-13T04:52:17;98585.78;;;8.05;86.52
76590;BME280;65471;55.908;37.880;2023-10-13T04:55:11;98598.50;;;8.10;85.94
76590;BME280;65471;55.908;37.880;2023-10-13T04:57:51;98609.34;;;8.15;85.57
76590;BME280;65471;55.908;37.880;2023-10-13T05:00:27;98611.56;;;8.18;85.27
76590;BME280;65471;55.908;37.880;2023-10-13T05:03:29;98604.84;;;8.21;84.83
76590;BME280;65471;55.908;37.880;2023-10-13T05:06:14;98611.88;;;8.22;84.51
76590;BME280;65471;55.908;37.880;2023-10-13T05:09:00;98611.88;;;8.22;84.69
76590;BME280;65471;55.908;37.880;2023-10-13T05:11:46;98626.97;;;8.23;83.58
76590;BME280;65471;55.908;37.880;2023-10-13T05:14:31;98631.63;;;8.27;83.71
76590;BME280;65471;55.908;37.880;2023-10-13T05:17:17;98623.78;;;8.26;83.69
76590;BME280;65471;55.908;37.880;2023-10-13T05:20:02;98634.81;;;8.24;82.53
76590;BME280;65471;55.908;37.880;2023-10-13T05:22:48;98638.47;;;8.18;82.21
76590;BME280;65471;55.908;37.880;2023-10-13T05:25:37;98642.47;;;8.16;81.15
76590;BME280;65471;55.908;37.880;2023-10-13T05:28:23;98654.94;;;8.22;80.68
76590;BME280;65471;55.908;37.880;2023-10-13T05:31:08;98656.69;;;8.28;81.03
76590;BME280;65471;55.908;37.880;2023-10-13T05:33:54;98672.59;;;8.29;81.02
76590;BME280;65471;55.908;37.880;2023-10-13T05:36:40;98666.63;;;8.27;81.28
76590;BME280;65471;55.908;37.880;2023-10-13T05:39:25;98670.16;;;8.28;80.81
76590;BME280;65471;55.908;37.880;2023-10-13T05:42:10;98680.09;;;8.27;81.17
76590;BME280;65471;55.908;37.880;2023-10-13T05:44:55;98695.19;;;8.28;81.69
76590;BME280;65471;55.908;37.880;2023-10-13T05:47:34;98685.81;;;8.31;81.53
76590;BME280;65471;55.908;37.880;2023-10-13T05:50:11;98702.28;;;8.35;80.34
76590;BME280;65471;55.908;37.880;2023-10-13T05:52:47;98697.56;;;8.42;80.65
76590;BME280;65471;55.908;37.880;2023-10-13T05:55:28;98701.44;;;8.46;80.33
76590;BME280;65471;55.908;37.880;2023-10-13T05:58:14;98710.34;;;8.46;80.39
76590;BME280;65471;55.908;37.880;2023-10-13T06:00:59;98701.19;;;8.48;80.22
76590;BME280;65471;55.908;37.880;2023-10-13T06:03:45;98711.16;;;8.47;80.61
76590;BME280;65471;55.908;37.880;2023-10-13T06:06:31;98718.19;;;8.48;80.86
76590;BME280;65471;55.908;37.880;2023-10-13T06:09:16;98721.13;;;8.46;80.14
76590;BME280;65471;55.908;37.880;2023-10-13T06:12:02;98730.47;;;8.44;80.29
76590;BME280;65471;55.908;37.880;2023-10-13T06:14:47;98739.16;;;8.46;80.24
76590;BME280;65471;55.908;37.880;2023-10-13T06:17:32;98737.50;;;8.45;80.25
76590;BME280;65471;55.908;37.880;2023-10-13T06:20:18;98734.00;;;8.44;80.91
76590;BME280;65471;55.908;37.880;2023-10-13T06:23:03;98743.72;;;8.45;80.01
76590;BME280;65471;55.908;37.880;2023-10-13T06:25:52;98746.19;;;8.47;79.83
76590;BME280;65471;55.908;37.880;2023-10-13T06:28:38;98749.44;;;8.49;79.30
76590;BME280;65471;55.908;37.880;2023-10-13T06:31:09;98740.66;;;8.54;79.12
76590;BME280;65471;55.908;37.880;2023-10-13T06:33:49;98756.13;;;8.63;78.75
76590;BME280;65471;55.908;37.880;2023-10-13T06:36:17;98751.25;;;8.77;78.53
76590;BME280;65471;55.908;37.880;2023-10-13T06:38:47;98755.69;;;8.84;78.12
76590;BME280;65471;55.908;37.880;2023-10-13T06:41:22;98764.06;;;8.87;77.32
76590;BME280;65471;55.908;37.880;2023-10-13T06:43:58;98763.59;;;8.90;77.13
76590;BME280;65471;55.908;37.880;2023-10-13T06:46:28;98785.25;;;8.95;75.53
76590;BME280;65471;55.908;37.880;2023-10-13T06:48:56;98773.72;;;9.00;75.38
76590;BME280;65471;55.908;37.880;2023-10-13T06:51:26;98771.91;;;9.06;75.13
76590;BME280;65471;55.908;37.880;2023-10-13T06:53:58;98770.34;;;9.10;74.44
76590;BME280;65471;55.908;37.880;2023-10-13T06:56:24;98774.44;;;9.12;74.99
76590;BME280;65471;55.908;37.880;2023-10-13T06:58:55;98778.03;;;9.18;74.36
76590;BME280;65471;55.908;37.880;2023-10-13T07:01:31;98785.13;;;9.24;74.73
76590;BME280;65471;55.908;37.880;2023-10-13T07:04:09;98792.47;;;9.29;73.76
76590;BME280;65471;55.908;37.880;2023-10-13T07:06:43;98776.28;;;9.29;74.47
76590;BME280;65471;55.908;37.880;2023-10-13T07:09:17;98798.63;;;9.24;74.23
76590;BME280;65471;55.908;37.880;2023-10-13T07:12:03;98800.75;;;9.22;74.08
76590;BME280;65471;55.908;37.880;2023-10-13T07:14:33;98812.00;;;9.19;73.99
76590;BME280;65471;55.908;37.880;2023-10-13T07:17:01;98815.22;;;9.16;74.03
76590;BME280;65471;55.908;37.880;2023-10-13T07:19:29;98820.84;;;9.14;74.61
76590;BME280;65471;55.908;37.880;2023-10-13T07:22:01;98834.34;;;9.14;74.15
76590;BME280;65471;55.908;37.880;2023-10-13T07:24:49;98841.13;;;9.17;72.64
76590;BME280;65471;55.908;37.880;2023-10-13T07:27:19;98845.78;;;9.22;71.81
76590;BME280;65471;55.908;37.880;2023-10-13T07:29:56;98853.97;;;9.27;72.19
76590;BME280;65471;55.908;37.880;2023-10-13T07:32:32;98841.63;;;9.31;72.57
76590;BME280;65471;55.908;37.880;2023-10-13T07:35:01;98855.09;;;9.31;72.50
76590;BME280;65471;55.908;37.880;2023-10-13T07:37:32;98854.84;;;9.32;71.65
76590;BME280;65471;55.908;37.880;2023-10-13T07:39:59;98863.50;;;9.35;70.81
76590;BME280;65471;55.908;37.880;2023-10-13T07:42:28;98851.66;;;9.36;71.21
76590;BME280;65471;55.908;37.880;2023-10-13T07:45:06;98859.00;;;9.40;71.65
76590;BME280;65471;55.908;37.880;2023-10-13T07:47:34;98863.91;;;9.43;71.30
76590;BME280;65471;55.908;37.880;2023-10-13T07:50:01;98866.59;;;9.43;71.15
76590;BME280;65471;55.908;37.880;2023-10-13T07:52:33;98881.47;;;9.46;70.99
76590;BME280;65471;55.908;37.880;2023-10-13T07:55:03;98878.78;;;9.46;71.17
76590;BME280;65471;55.908;37.880;2023-10-13T07:57:47;98876.09;;;9.46;71.27
76590;BME280;65471;55.908;37.880;2023-10-13T08:00:26;98886.16;;;9.50;71.32
76590;BME280;65471;55.908;37.880;2023-10-13T08:03:14;98885.97;;;9.57;71.51
76590;BME280;65471;55.908;37.880;2023-10-13T08:05:45;98885.00;;;9.63;72.11
76590;BME280;65471;55.908;37.880;2023-10-13T08:08:34;98887.75;;;9.68;71.94
76590;BME280;65471;55.908;37.880;2023-10-13T08:11:12;98899.16;;;9.71;70.04
76590;BME280;65471;55.908;37.880;2023-10-13T08:13:52;98915.34;;;9.71;69.71
76590;BME280;65471;55.908;37.880;2023-10-13T08:16:39;98914.50;;;9.70;69.35
76590;BME280;65471;55.908;37.880;2023-10-13T08:19:17;98931.78;;;9.69;67.49
76590;BME280;65471;55.908;37.880;2023-10-13T08:21:44;98933.41;;;9.70;66.46
76590;BME280;65471;55.908;37.880;2023-10-13T08:24:41;98941.75;;;9.68;67.22
76590;BME280;65471;55.908;37.880;2023-10-13T08:27:08;98953.78;;;9.78;67.94
76590;BME280;65471;55.908;37.880;2023-10-13T08:32:28;98956.38;;;9.90;67.13
76590;BME280;65471;55.908;37.880;2023-10-13T08:34:59;98969.63;;;9.91;66.40
76590;BME280;65471;55.908;37.880;2023-10-13T08:37:36;98952.19;;;9.99;66.94
76590;BME280;65471;55.908;37.880;2023-10-13T08:40:22;98964.13;;;10.03;66.30
76590;BME280;65471;55.908;37.880;2023-10-13T08:43:11;98964.75;;;10.10;66.27
76590;BME280;65471;55.908;37.880;2023-10-13T08:45:40;98971.00;;;10.11;67.13
76590;BME280;65471;55.908;37.880;2023-10-13T08:48:07;98965.59;;;10.11;66.46
76590;BME280;65471;55.908;37.880;2023-10-13T08:50:52;98978.59;;;10.14;63.98
76590;BME280;65471;55.908;37.880;2023-10-13T08:56:08;98996.47;;;10.15;64.88
76590;BME280;65471;55.908;37.880;2023-10-13T08:58:48;98993.09;;;10.08;64.87
76590;BME280;65471;55.908;37.880;2023-10-13T09:01:33;98989.25;;;10.04;65.69
76590;BME280;65471;55.908;37.880;2023-10-13T09:04:17;99001.47;;;10.06;65.46
76590;BME280;65471;55.908;37.880;2023-10-13T09:06:55;99002.56;;;10.10;65.75
76590;BME280;65471;55.908;37.880;2023-10-13T09:09:49;98994.91;;;10.19;65.78
76590;BME280;65471;55.908;37.880;2023-10-13T09:12:27;98995.28;;;10.28;65.41
76590;BME280;65471;55.908;37.880;2023-10-13T09:15:09;98997.03;;;10.56;65.32
76590;BME280;65471;55.908;37.880;2023-10-13T09:17:44;99003.81;;;10.81;62.99
76590;BME280;65471;55.908;37.880;2023-10-13T09:20:34;98993.88;;;11.36;61.42
76590;BME280;65471;55.908;37.880;2023-10-13T09:23:09;99011.28;;;12.58;58.12
76590;BME280;65471;55.908;37.880;2023-10-13T09:25:40;99026.25;;;13.44;55.02
76590;BME280;65471;55.908;37.880;2023-10-13T09:28:21;99030.34;;;13.68;54.41
76590;BME280;65471;55.908;37.880;2023-10-13T09:30:53;99037.16;;;13.60;53.32
76590;BME280;65471;55.908;37.880;2023-10-13T09:33:22;99039.03;;;13.44;53.39
76590;BME280;65471;55.908;37.880;2023-10-13T09:36:09;99049.88;;;13.39;52.62
76590;BME280;65471;55.908;37.880;2023-10-13T09:38:39;99050.00;;;13.01;53.14
76590;BME280;65471;55.908;37.880;2023-10-13T09:41:07;99063.47;;;12.75;54.90
76590;BME280;65471;55.908;37.880;2023-10-13T09:43:53;99062.53;;;12.59;54.67
76590;BME280;65471;55.908;37.880;2023-10-13T09:46:26;99071.41;;;12.45;54.80
76590;BME280;65471;55.908;37.880;2023-10-13T09:48:59;99070.31;;;12.40;54.84
76590;BME280;65471;55.908;37.880;2023-10-13T09:51:41;99068.13;;;12.42;57.31
76590;BME280;65471;55.908;37.880;2023-10-13T09:54:27;99081.69;;;12.42;55.86
76590;BME280;65471;55.908;37.880;2023-10-13T09:57:20;99069.00;;;12.48;54.65
76590;BME280;65471;55.908;37.880;2023-10-13T09:59:57;99067.69;;;12.56;55.45
76590;BME280;65471;55.908;37.880;2023-10-13T10:02:35;99083.28;;;11.73;57.74
76590;BME280;65471;55.908;37.880;2023-10-13T10:05:09;99092.66;;;11.38;56.75
76590;BME280;65471;55.908;37.880;2023-10-13T10:07:58;99088.06;;;11.12;58.05
76590;BME280;65471;55.908;37.880;2023-10-13T10:17:06;99099.63;;;11.29;59.19
76590;BME280;65471;55.908;37.880;2023-10-13T10:19:52;99108.91;;;11.38;58.61
76590;BME280;65471;55.908;37.880;2023-10-13T10:22:33;99113.59;;;11.43;57.52
76590;BME280;65471;55.908;37.880;2023-10-13T10:25:01;99101.38;;;11.40;56.86
76590;BME280;65471;55.908;37.880;2023-10-13T10:27:33;99123.38;;;11.27;56.92
76590;BME280;65471;55.908;37.880;2023-10-13T10:30:01;99118.81;;;11.28;57.27
76590;BME280;65471;55.908;37.880;2023-10-13T10:32:32;99120.50;;;11.34;57.79
76590;BME280;65471;55.908;37.880;2023-10-13T10:35:08;99112.56;;;11.27;58.63
76590;BME280;65471;55.908;37.880;2023-10-13T10:37:41;99124.16;;;11.22;57.60
76590;BME280;65471;55.908;37.880;2023-10-13T10:40:15;99120.94;;;11.26;58.05
76590;BME280;65471;55.908;37.880;2023-10-13T10:43:13;99124.41;;;11.21;57.78
76590;BME280;65471;55.908;37.880;2023-10-13T10:45:58;99130.19;;;11.30;57.52
76590;BME280;65471;55.908;37.880;2023-10-13T10:48:28;99131.00;;;11.52;58.36
76590;BME280;65471;55.908;37.880;2023-10-13T10:51:05;99153.19;;;11.77;57.37
76590;BME280;65471;55.908;37.880;2023-10-13T10:53:41;99136.94;;;11.77;57.92
76590;BME280;65471;55.908;37.880;2023-10-13T10:56:12;99132.84;;;11.96;57.84
76590;BME280;65471;55.908;37.880;2023-10-13T10:58:56;99144.22;;;11.98;57.15
76590;BME280;65471;55.908;37.880;2023-10-13T11:01:25;99137.69;;;11.94;56.35
76590;BME280;65471;55.908;37.880;2023-10-13T11:04:02;99151.84;;;12.01;56.58
76590;BME280;65471;55.908;37.880;2023-10-13T11:06:36;99160.16;;;12.22;56.77
76590;BME280;65471;55.908;37.880;2023-10-13T11:09:09;99149.44;;;12.37;53.82
76590;BME280;65471;55.908;37.880;2023-10-13T11:11:46;99153.31;;;12.47;54.14
76590;BME280;65471;55.908;37.880;2023-10-13T11:14:20;99177.44;;;12.43;54.72
76590;BME280;65471;55.908;37.880;2023-10-13T11:16:50;99164.41;;;12.45;54.96
76590;BME280;65471;55.908;37.880;2023-10-13T11:19:17;99163.22;;;12.68;54.50
76590;BME280;65471;55.908;37.880;2023-10-13T11:21:53;99172.59;;;12.88;53.44
76590;BME280;65471;55.908;37.880;2023-10-13T11:24:20;99182.81;;;13.23;52.25
76590;BME280;65471;55.908;37.880;2023-10-13T11:26:49;99197.41;;;13.65;50.42
76590;BME280;65471;55.908;37.880;2023-10-13T11:29:17;99193.72;;;13.97;49.63
76590;BME280;65471;55.908;37.880;2023-10-13T11:31:48;99190.44;;;13.90;49.47
76590;BME280;65471;55.908;37.880;2023-10-13T11:34:26;99195.59;;;13.96;49.51
76590;BME280;65471;55.908;37.880;2023-10-13T11:37:02;99196.94;;;13.84;50.41
76590;BME280;65471;55.908;37.880;2023-10-13T11:39:49;99197.47;;;13.80;50.18
76590;BME280;65471;55.908;37.880;2023-10-13T11:42:18;99193.00;;;13.38;50.87
76590;BME280;65471;55.908;37.880;2023-10-13T11:44:45;99200.03;;;12.91;51.80
76590;BME280;65471;55.908;37.880;2023-10-13T11:47:12;99207.94;;;12.60;51.57
76590;BME280;65471;55.908;37.880;2023-10-13T11:49:58;99213.66;;;12.32;50.72
76590;BME280;65471;55.908;37.880;2023-10-13T11:52:26;99215.34;;;12.11;52.35
76590;BME280;65471;55.908;37.880;2023-10-13T11:54:55;99217.31;;;11.93;53.47
76590;BME280;65471;55.908;37.880;2023-10-13T11:57:21;99217.63;;;11.74;54.32
76590;BME280;65471;55.908;37.880;2023-10-13T11:59:49;99226.13;;;11.61;53.67
76590;BME280;65471;55.908;37.880;2023-10-13T12:02:23;99224.09;;;11.51;54.35
76590;BME280;65471;55.908;37.880;2023-10-13T12:04:52;99229.16;;;11.43;54.81
76590;BME280;65471;55.908;37.880;2023-10-13T12:07:24;99239.34;;;11.35;55.18
76590;BME280;65471;55.908;37.880;2023-10-13T12:10:07;99227.81;;;11.23;56.01
76590;BME280;65471;55.908;37.880;2023-10-13T12:12:42;99219.13;;;11.21;55.17
76590;BME280;65471;55.908;37.880;2023-10-13T12:15:11;99236.50;;;11.25;55.36
76590;BME280;65471;55.908;37.880;2023-10-13T12:17:52;99229.94;;;11.21;55.21
76590;BME280;65471;55.908;37.880;2023-10-13T12:20:20;99227.81;;;11.23;54.80
76590;BME280;65471;55.908;37.880;2023-10-13T12:23:00;99228.03;;;11.21;54.96
76590;BME280;65471;55.908;37.880;2023-10-13T12:25:37;99234.53;;;11.20;54.03
76590;BME280;65471;55.908;37.880;2023-10-13T12:28:24;99220.19;;;11.20;54.14
76590;BME280;65471;55.908;37.880;2023-10-13T12:30:55;99237.81;;;11.22;54.75
76590;BME280;65471;55.908;37.880;2023-10-13T12:33:24;99233.16;;;11.18;55.34
76590;BME280;65471;55.908;37.880;2023-10-13T12:38:30;99245.66;;;11.02;56.25
76590;BME280;65471;55.908;37.880;2023-10-13T12:41:16;99239.84;;;10.93;56.56
76590;BME280;65471;55.908;37.880;2023-10-13T12:44:03;99248.41;;;10.90;56.50
76590;BME280;65471;55.908;37.880;2023-10-13T12:46:49;99232.19;;;10.90;54.88
76590;BME280;65471;55.908;37.880;2023-10-13T12:49:36;99239.91;;;10.98;54.12
76590;BME280;65471;55.908;37.880;2023-10-13T12:52:11;99242.84;;;10.97;54.92
76590;BME280;65471;55.908;37.880;2023-10-13T12:54:53;99253.53;;;10.86;56.01
76590;BME280;65471;55.908;37.880;2023-10-13T12:57:29;99246.88;;;10.77;57.09
76590;BME280;65471;55.908;37.880;2023-10-13T12:59:56;99254.91;;;10.72;57.55
76590;BME280;65471;55.908;37.880;2023-10-13T13:02:25;99252.63;;;10.64;58.21
76590;BME280;65471;55.908;37.880;2023-10-13T13:04:54;99255.06;;;10.65;56.21
76590;BME280;65471;55.908;37.880;2023-10-13T13:07:24;99258.44;;;10.73;54.98
76590;BME280;65471;55.908;37.880;2023-10-13T13:09:56;99258.53;;;10.78;55.29
76590;BME280;65471;55.908;37.880;2023-10-13T13:12:27;99268.19;;;10.74;56.18
76590;BME280;65471;55.908;37.880;2023-10-13T13:14:56;99258.13;;;10.69;56.45
76590;BME280;65471;55.908;37.880;2023-10-13T13:17:23;99267.19;;;10.63;56.94
76590;BME280;65471;55.908;37.880;2023-10-13T13:19:50;99261.97;;;10.56;57.43
76590;BME280;65471;55.908;37.880;2023-10-13T13:22:17;99262.09;;;10.49;58.54
76590;BME280;65471;55.908;37.880;2023-10-13T13:24:45;99264.63;;;10.39;59.69
76590;BME280;65471;55.908;37.880;2023-10-13T13:27:13;99276.59;;;10.31;59.46
76590;BME280;65471;55.908;37.880;2023-10-13T13:29:41;99285.91;;;10.35;58.43
76590;BME280;65471;55.908;37.880;2023-10-13T13:32:08;99283.31;;;10.41;58.35
76590;BME280;65471;55.908;37.880;2023-10-13T13:34:45;99281.31;;;10.36;58.87
76590;BME280;65471;55.908;37.880;2023-10-13T13:37:21;99288.50;;;10.30;59.74
76590;BME280;65471;55.908;37.880;2023-10-13T13:39:48;99295.34;;;10.21;60.27
76590;BME280;65471;55.908;37.880;2023-10-13T13:42:19;99291.72;;;10.15;60.61
76590;BME280;65471;55.908;37.880;2023-10-13T13:44:47;99282.81;;;10.15;59.57
76590;BME280;65471;55.908;37.880;2023-10-13T13:47:14;99296.88;;;10.17;60.03
76590;BME280;65471;55.908;37.880;2023-10-13T13:49:41;99286.00;;;10.12;60.29
76590;BME280;65471;55.908;37.880;2023-10-13T13:52:18;99299.94;;;10.09;60.64
76590;BME280;65471;55.908;37.880;2023-10-13T13:54:48;99305.53;;;10.02;61.24
76590;BME280;65471;55.908;37.880;2023-10-13T13:57:15;99304.84;;;9.95;61.75
76590;BME280;65471;55.908;37.880;2023-10-13T13:59:44;99313.38;;;9.92;61.77